Toussaint Louverture International Airport
MTPP : now visible

Airfield :











YOU CAN JOIN US ON...

 
LOGIN :

Register | Disclaimer

   EN    FR    IT 

 









Legend :    VFR   Marginal VFR   IFR   Intensive IFR   Very Intensive IFR
Visi :
Ceiling :
>= 8 km
>= 3000ft
5 to 8 km
1000 to 3000 ft
1500m to 5 km
500 to 1000 ft
800 to 1500m
200 to 500 ft
< 800m
< 200 ft
Symbols :   Thunderstorms  Fog  Heavy snow  Heavy precipitations  Wind > 20 kt






- Airport Elevation : 122 ft
- IATA code : PAP


MTPP - Toussaint Louverture International

CURRENT METAR :
  • 191455Z 11017KT 9999 FEW025 29/19 Q1017 A3004

EXPIRED METARs :
  • 191353Z 11012G24KT 9999 FEW024 27/20 Q1018 A3006
  • 191257Z 12014KT 9999 FEW022 25/19 Q1017 A3005

TAF TAF MTPP
Valid from the 18 at 18:00 until the 19 at 18:00 UTC


181756Z 1818/1918 VRB02KT 9999 FEW027
BECMG 1818/1822 27012KT
PROB40
TEMPO 1902/1906 09012KT 4500 SHRA SCT022CB BKN060
BECMG 1908/1912 VRB02KT 9000 FEW020
BECMG 1914/1918 09012KT



MET'MAP, your aeronautical weather chart ! - Copyright ORBIFLY December 2007 - Disclaimer

ORBIFLY MET'MAP TEAM :

Programming & Development : Alexandra Zaïnal
Concept & original design : Baudouin d'Aumeries
Assistance for programming : Marc-Olivier Méhu
Technical & hardware support : Manuel Goepfert

Contact : metmap@orbifly.com




SOURCES & CREDITS :

   NOAA       Earth
Advisory